createdAt,value
2022-09-05T00:00:39.098Z,66.36
2022-09-05T00:06:10.112Z,54.23
2022-09-05T00:11:51.896Z,53.82
2022-09-05T00:18:37.706Z,54.67
2022-09-05T00:24:26.079Z,56.18
2022-09-05T00:29:07.379Z,57.12
2022-09-05T00:35:06.799Z,57.88
2022-09-05T00:40:43.000Z,58.50
2022-09-05T00:46:12.905Z,59.57
2022-09-05T00:51:44.611Z,60.29
2022-09-05T00:57:42.770Z,68.33
2022-09-05T01:03:26.266Z,56.31
2022-09-05T01:08:47.217Z,52.81
2022-09-05T01:14:12.755Z,54.31
2022-09-05T01:19:51.954Z,55.56
2022-09-05T01:25:33.790Z,55.60
2022-09-05T01:31:18.436Z,57.54
2022-09-05T01:36:51.221Z,58.85
2022-09-05T01:42:37.081Z,60.32
2022-09-05T01:47:57.153Z,67.83
2022-09-05T01:53:39.139Z,56.08
2022-09-05T01:59:23.450Z,54.49
2022-09-05T02:05:14.151Z,55.94
2022-09-05T02:10:40.819Z,56.51
2022-09-05T02:16:28.772Z,57.57
2022-09-05T02:22:06.384Z,58.38
2022-09-05T02:28:04.485Z,59.39
2022-09-05T02:33:29.370Z,60.17
2022-09-05T02:42:43.496Z,68.60
2022-09-05T02:45:30.150Z,56.49
2022-09-05T02:57:29.509Z,52.71
2022-09-05T02:57:33.188Z,54.11
2022-09-05T03:03:20.547Z,55.07
2022-09-05T03:09:09.719Z,56.30
2022-09-05T03:15:18.777Z,57.37
2022-09-05T03:20:54.917Z,58.33
2022-09-05T03:27:20.655Z,59.46
2022-09-05T03:33:05.778Z,60.06
2022-09-05T03:38:47.073Z,68.77
2022-09-05T03:44:44.586Z,55.91
2022-09-05T03:55:12.164Z,54.74
2022-09-05T03:57:27.637Z,56.19
2022-09-05T04:05:10.938Z,56.92
2022-09-05T04:08:18.633Z,57.97
2022-09-05T04:13:55.342Z,58.97
2022-09-05T04:19:27.627Z,60.18
2022-09-05T04:24:54.046Z,68.72
2022-09-05T04:30:38.467Z,58.16
2022-09-05T04:36:18.633Z,52.17
2022-09-05T04:41:43.047Z,53.40
2022-09-05T04:47:15.748Z,55.04
2022-09-05T04:53:04.772Z,56.31
2022-09-05T04:59:34.286Z,57.58
2022-09-05T05:06:14.075Z,58.85
2022-09-05T05:15:43.912Z,60.08
2022-09-05T05:18:08.631Z,69.19
2022-09-05T05:21:45.913Z,57.55
2022-09-05T05:27:16.560Z,52.88
2022-09-05T05:32:46.374Z,54.34
2022-09-05T05:38:34.238Z,55.68
2022-09-05T05:43:54.632Z,56.90
2022-09-05T05:49:44.470Z,58.30
2022-09-05T05:55:48.962Z,59.27
2022-09-05T06:01:09.395Z,60.30
2022-09-05T06:07:25.587Z,69.06
2022-09-05T06:14:57.750Z,56.56
2022-09-05T06:19:11.829Z,54.10
2022-09-05T06:25:16.447Z,55.71
2022-09-05T06:31:29.758Z,56.77
2022-09-05T06:36:52.987Z,57.71
2022-09-05T06:42:42.342Z,59.02
2022-09-05T06:48:27.866Z,59.50
2022-09-05T06:54:16.317Z,60.25
2022-09-05T06:59:58.258Z,67.19
2022-09-05T07:05:39.421Z,55.49
2022-09-05T07:11:17.323Z,55.30
2022-09-05T07:16:47.829Z,56.53
2022-09-05T07:22:18.514Z,57.88
2022-09-05T07:28:29.222Z,58.03
2022-09-05T07:34:04.818Z,58.81
2022-09-05T07:39:48.002Z,59.68
2022-09-05T07:45:13.837Z,60.43
2022-09-05T07:56:46.135Z,65.44
2022-09-05T08:02:46.965Z,55.44
2022-09-05T08:08:14.420Z,56.31
2022-09-05T08:13:57.828Z,57.12
2022-09-05T08:19:41.522Z,58.07
2022-09-05T08:25:36.332Z,58.64
2022-09-05T08:31:21.654Z,59.11
2022-09-05T08:36:49.105Z,59.05
2022-09-05T08:42:21.750Z,59.55
2022-09-05T08:47:45.192Z,59.53
2022-09-05T08:53:18.610Z,59.16
2022-09-05T08:59:32.394Z,58.76
2022-09-05T09:05:14.533Z,58.86
2022-09-05T09:10:55.085Z,59.05
2022-09-05T09:16:58.871Z,58.51
2022-09-05T09:22:51.513Z,57.40
2022-09-05T09:28:49.044Z,57.34
2022-09-05T09:34:26.874Z,56.53
2022-09-05T09:40:23.783Z,56.14
2022-09-05T09:45:59.287Z,56.06
2022-09-05T09:51:40.303Z,55.10
2022-09-05T09:57:06.152Z,52.77
2022-09-05T10:06:43.761Z,54.02
2022-09-05T10:11:20.811Z,54.10
2022-09-05T10:14:47.842Z,54.16
2022-09-05T10:20:29.312Z,53.57
2022-09-05T10:26:24.674Z,53.45
2022-09-05T10:35:02.880Z,53.09
2022-09-05T10:37:42.262Z,51.95
2022-09-05T10:43:13.488Z,52.16
2022-09-05T10:48:53.060Z,51.66
2022-09-05T10:54:50.594Z,50.26
2022-09-05T11:02:27.454Z,50.59
2022-09-05T11:06:52.740Z,51.07
2022-09-05T11:12:34.128Z,51.01
2022-09-05T11:18:02.669Z,49.88
2022-09-05T11:23:35.050Z,49.60
2022-09-05T11:29:05.722Z,48.61
2022-09-05T11:39:53.714Z,48.19
2022-09-05T11:41:08.498Z,47.94
2022-09-05T11:46:32.271Z,46.43
2022-09-05T11:52:07.775Z,47.36
2022-09-05T11:57:50.044Z,45.72
2022-09-05T12:03:56.924Z,44.43
2022-09-05T12:09:25.937Z,44.78
2022-09-05T12:14:58.656Z,44.00
2022-09-05T12:20:32.717Z,42.93
2022-09-05T12:27:38.203Z,43.08
2022-09-05T12:33:45.568Z,43.52
2022-09-05T12:40:15.733Z,43.10
2022-09-05T12:44:41.793Z,41.97
2022-09-05T12:50:03.577Z,41.52
2022-09-05T12:55:46.996Z,40.30
2022-09-05T13:03:14.439Z,40.73
2022-09-05T13:07:34.665Z,40.86
2022-09-05T13:14:54.435Z,41.01
2022-09-05T13:18:44.433Z,41.10
2022-09-05T13:24:12.447Z,40.26
2022-09-05T13:31:01.357Z,38.67
2022-09-05T13:38:02.657Z,39.12
2022-09-05T13:41:37.809Z,38.92
2022-09-05T13:47:30.942Z,39.59
2022-09-05T13:53:05.202Z,39.04
2022-09-05T13:58:51.011Z,39.32
2022-09-05T14:10:48.123Z,39.36
2022-09-05T14:16:16.784Z,38.79
2022-09-05T14:21:41.013Z,39.11
2022-09-05T14:27:03.284Z,39.17
2022-09-05T14:37:54.786Z,38.84
2022-09-05T14:38:07.835Z,39.87
2022-09-05T14:43:31.306Z,39.32
2022-09-05T14:49:02.765Z,40.89
2022-09-05T15:02:50.438Z,42.00
2022-09-05T15:05:13.787Z,42.31
2022-09-05T15:12:14.113Z,42.18
2022-09-05T15:15:46.247Z,42.92
2022-09-05T15:21:38.750Z,42.64
2022-09-05T15:26:56.196Z,42.60
2022-09-05T15:32:24.172Z,43.79
2022-09-05T15:37:31.643Z,43.91
2022-09-05T15:42:38.120Z,45.26
2022-09-05T15:47:47.391Z,45.50
2022-09-05T15:52:55.411Z,45.92
2022-09-05T15:58:07.540Z,46.29
2022-09-05T16:04:22.352Z,46.79
2022-09-05T16:10:49.437Z,47.50
2022-09-05T16:14:39.603Z,47.43
2022-09-05T16:23:23.592Z,47.46
2022-09-05T16:25:22.715Z,48.01
2022-09-05T16:30:37.894Z,48.29
2022-09-05T16:36:07.633Z,48.38
2022-09-05T16:41:19.981Z,47.86
2022-09-05T16:46:34.138Z,47.60
2022-09-05T16:52:06.754Z,47.96
2022-09-05T16:57:17.001Z,47.63
2022-09-05T17:02:33.074Z,47.77
2022-09-05T17:07:42.228Z,48.21
2022-09-05T17:12:46.223Z,48.07
2022-09-05T17:18:21.938Z,48.28
2022-09-05T17:27:19.956Z,48.33
2022-09-05T17:29:29.831Z,48.44
2022-09-05T17:34:16.465Z,48.78
2022-09-05T17:39:45.402Z,49.52
2022-09-05T17:44:48.728Z,49.60
2022-09-05T17:50:40.636Z,49.93
2022-09-05T17:55:43.418Z,50.30
2022-09-05T18:00:49.549Z,50.54
2022-09-05T18:06:04.037Z,50.81
2022-09-05T18:11:14.457Z,51.02
2022-09-05T18:16:48.315Z,51.26
2022-09-05T18:22:11.257Z,51.35
2022-09-05T18:33:54.432Z,51.16
2022-09-05T18:38:51.050Z,51.12
2022-09-05T18:44:20.373Z,51.35
2022-09-05T18:50:22.220Z,51.33
2022-09-05T18:56:11.346Z,50.98
2022-09-05T19:00:46.703Z,50.72
2022-09-05T19:06:36.384Z,50.72
2022-09-05T19:11:53.278Z,50.15
2022-09-05T19:17:09.203Z,49.61
2022-09-05T19:23:01.851Z,49.06
2022-09-05T19:28:59.996Z,48.38
2022-09-05T19:36:58.282Z,47.60
2022-09-05T19:39:34.636Z,47.40
2022-09-05T19:47:44.521Z,46.87
2022-09-05T19:49:21.378Z,47.04
2022-09-05T19:54:36.323Z,46.57
2022-09-05T19:59:42.021Z,46.56
2022-09-05T20:04:53.077Z,46.82
2022-09-05T20:09:58.181Z,46.91
2022-09-05T20:15:23.005Z,47.07
2022-09-05T20:20:30.705Z,47.15
2022-09-05T20:25:53.358Z,47.23
2022-09-05T20:31:02.176Z,47.24
2022-09-05T20:43:08.667Z,47.27
2022-09-05T20:43:24.763Z,47.11
2022-09-05T20:51:33.272Z,46.98
2022-09-05T20:54:24.431Z,46.61
2022-09-05T20:58:24.774Z,46.33
2022-09-05T21:03:45.293Z,46.42
2022-09-05T21:08:56.057Z,46.25
2022-09-05T21:14:04.560Z,46.46
2022-09-05T21:19:22.117Z,46.66
2022-09-05T21:24:25.003Z,46.43
2022-09-05T21:29:32.680Z,46.20
2022-09-05T21:34:44.948Z,46.42
2022-09-05T21:39:58.290Z,46.25
2022-09-05T21:47:37.715Z,46.43
2022-09-05T21:50:31.526Z,46.00
2022-09-05T21:59:18.832Z,46.38
2022-09-05T22:00:58.243Z,46.34
2022-09-05T22:06:04.198Z,46.38
2022-09-05T22:11:12.744Z,46.45
2022-09-05T22:16:15.894Z,46.41
2022-09-05T22:21:32.975Z,46.37
2022-09-05T22:26:44.779Z,46.37
2022-09-05T22:32:05.801Z,46.43
2022-09-05T22:37:08.613Z,46.49
2022-09-05T22:42:12.221Z,46.52
2022-09-05T22:47:15.158Z,46.59
2022-09-05T22:52:17.977Z,46.65
2022-09-05T22:57:20.766Z,46.59
2022-09-05T23:02:23.707Z,46.76
2022-09-05T23:07:26.846Z,46.79
2022-09-05T23:12:29.753Z,47.01
2022-09-05T23:17:32.631Z,47.31
2022-09-05T23:22:36.456Z,47.26
2022-09-05T23:27:39.606Z,47.60
2022-09-05T23:32:47.535Z,47.60
2022-09-05T23:37:50.663Z,47.69
2022-09-05T23:42:59.001Z,47.61
2022-09-05T23:48:02.386Z,47.72
2022-09-05T23:53:05.423Z,47.85
2022-09-05T23:58:08.867Z,47.97
